createdAt,value
2024-05-09T00:00:29.590Z,6.27
2024-05-09T00:04:16.433Z,6.25
2024-05-09T00:07:42.301Z,6.25
2024-05-09T00:11:08.374Z,6.22
2024-05-09T00:14:36.321Z,6.20
2024-05-09T00:18:07.289Z,6.18
2024-05-09T00:21:33.479Z,6.15
2024-05-09T00:24:59.748Z,6.10
2024-05-09T00:28:25.739Z,6.04
2024-05-09T00:31:51.218Z,6.02
2024-05-09T00:35:19.344Z,6.00
2024-05-09T00:38:45.667Z,6.00
2024-05-09T00:42:11.102Z,6.00
2024-05-09T00:45:37.414Z,5.98
2024-05-09T00:49:03.210Z,6.00
2024-05-09T00:52:29.299Z,5.99
2024-05-09T00:55:55.472Z,5.94
2024-05-09T00:59:21.515Z,5.89
2024-05-09T01:02:47.378Z,5.85
2024-05-09T01:06:14.116Z,5.82
2024-05-09T01:09:39.740Z,5.80
2024-05-09T01:13:05.451Z,5.76
2024-05-09T01:16:31.500Z,5.67
2024-05-09T01:19:59.953Z,5.56
2024-05-09T01:23:25.620Z,5.50
2024-05-09T01:26:51.430Z,5.46
2024-05-09T01:30:21.246Z,5.43
2024-05-09T01:33:48.684Z,5.36
2024-05-09T01:37:14.136Z,5.26
2024-05-09T01:40:40.579Z,5.21
2024-05-09T01:44:05.622Z,5.19
2024-05-09T01:47:31.596Z,5.18
2024-05-09T01:50:57.691Z,5.19
2024-05-09T01:54:23.475Z,5.17
2024-05-09T01:57:48.982Z,5.16
2024-05-09T02:01:16.168Z,5.13
2024-05-09T02:04:41.776Z,5.15
2024-05-09T02:08:13.073Z,5.14
2024-05-09T02:11:43.635Z,5.14
2024-05-09T02:15:10.404Z,5.14
2024-05-09T02:18:36.208Z,5.14
2024-05-09T02:22:02.071Z,5.20
2024-05-09T02:25:27.846Z,5.23
2024-05-09T02:28:53.540Z,5.25
2024-05-09T02:32:19.294Z,5.27
2024-05-09T02:35:45.396Z,5.26
2024-05-09T02:39:10.791Z,5.21
2024-05-09T02:42:36.616Z,5.15
2024-05-09T02:46:05.520Z,5.09
2024-05-09T02:49:31.222Z,5.05
2024-05-09T02:52:57.099Z,4.99
2024-05-09T02:56:22.632Z,4.93
2024-05-09T02:59:48.319Z,4.88
2024-05-09T03:03:15.635Z,4.84
2024-05-09T03:06:43.500Z,4.80
2024-05-09T03:10:18.263Z,4.77
2024-05-09T03:13:47.797Z,4.73
2024-05-09T03:17:12.996Z,4.70
2024-05-09T03:20:39.157Z,4.66
2024-05-09T03:24:04.697Z,4.64
2024-05-09T03:27:30.687Z,4.61
2024-05-09T03:30:56.298Z,4.58
2024-05-09T03:34:22.050Z,4.56
2024-05-09T03:37:49.508Z,4.56
2024-05-09T03:41:15.222Z,4.58
2024-05-09T03:44:41.174Z,4.62
2024-05-09T03:48:07.256Z,4.64
2024-05-09T03:51:32.582Z,4.63
2024-05-09T03:54:58.515Z,4.62
2024-05-09T03:58:26.549Z,4.65
2024-05-09T04:01:56.656Z,4.71
2024-05-09T04:05:25.954Z,4.77
2024-05-09T04:08:58.210Z,4.87
2024-05-09T04:12:24.743Z,5.00
2024-05-09T04:15:50.614Z,5.14
2024-05-09T04:19:16.210Z,5.27
2024-05-09T04:22:41.826Z,5.35
2024-05-09T04:26:08.829Z,5.40
2024-05-09T04:29:37.533Z,5.48
2024-05-09T04:33:03.713Z,5.57
2024-05-09T04:36:29.533Z,5.66
2024-05-09T04:39:56.229Z,5.75
2024-05-09T04:43:22.292Z,5.85
2024-05-09T04:46:51.562Z,5.96
2024-05-09T04:50:24.703Z,6.07
2024-05-09T04:53:55.546Z,6.19
2024-05-09T04:57:20.751Z,6.30
2024-05-09T05:00:45.996Z,6.41
2024-05-09T05:04:11.589Z,6.52
2024-05-09T05:07:37.179Z,6.65
2024-05-09T05:11:02.298Z,6.80
2024-05-09T05:14:28.246Z,6.94
2024-05-09T05:17:53.630Z,7.07
2024-05-09T05:21:19.083Z,7.18
2024-05-09T05:24:44.596Z,7.34
2024-05-09T05:28:10.457Z,7.47
2024-05-09T05:31:36.031Z,7.62
2024-05-09T05:35:01.810Z,7.75
2024-05-09T05:38:28.570Z,7.90
2024-05-09T05:41:54.347Z,8.07
2024-05-09T05:45:19.673Z,8.26
2024-05-09T05:48:44.893Z,8.44
2024-05-09T05:52:13.188Z,8.64
2024-05-09T05:55:40.235Z,8.83
2024-05-09T05:59:05.775Z,9.00
2024-05-09T06:02:31.323Z,9.18
2024-05-09T06:05:56.790Z,9.35
2024-05-09T06:09:22.478Z,9.50
2024-05-09T06:12:48.274Z,9.63
2024-05-09T06:16:13.467Z,9.74
2024-05-09T06:19:38.711Z,9.85
2024-05-09T06:23:03.984Z,9.95
2024-05-09T06:26:29.217Z,10.05
2024-05-09T06:29:55.014Z,10.16
2024-05-09T06:33:20.594Z,10.24
2024-05-09T06:36:45.914Z,10.29
2024-05-09T06:40:17.353Z,10.36
2024-05-09T06:43:42.888Z,10.45
2024-05-09T06:47:09.694Z,10.54
2024-05-09T06:50:38.009Z,10.64
2024-05-09T06:54:08.433Z,10.72
2024-05-09T06:57:34.034Z,10.79
2024-05-09T07:00:59.719Z,10.88
2024-05-09T07:04:25.847Z,11.00
2024-05-09T07:07:51.518Z,11.13
2024-05-09T07:11:17.474Z,11.27
2024-05-09T07:14:43.611Z,11.40
2024-05-09T07:18:15.463Z,11.54
2024-05-09T07:21:41.140Z,11.70
2024-05-09T07:25:06.738Z,11.88
2024-05-09T07:28:31.916Z,12.02
2024-05-09T07:31:56.797Z,12.14
2024-05-09T07:35:22.841Z,12.27
2024-05-09T07:38:47.945Z,12.35
2024-05-09T07:42:13.103Z,12.45
2024-05-09T07:45:48.585Z,12.61
2024-05-09T07:53:34.693Z,12.89
2024-05-09T07:56:33.143Z,13.09
2024-05-09T07:59:58.382Z,13.27
2024-05-09T08:03:24.143Z,13.45
2024-05-09T08:06:53.521Z,13.53
2024-05-09T08:10:21.982Z,13.61
2024-05-09T08:13:50.316Z,13.66
2024-05-09T08:17:20.453Z,13.77
2024-05-09T08:20:49.915Z,13.87
2024-05-09T08:24:15.127Z,13.92
2024-05-09T08:27:41.878Z,13.95
2024-05-09T08:31:07.792Z,13.96
2024-05-09T08:34:34.302Z,14.01
2024-05-09T08:38:00.147Z,14.08
2024-05-09T08:41:25.740Z,14.19
2024-05-09T08:44:54.130Z,14.34
2024-05-09T08:48:26.358Z,14.51
2024-05-09T08:51:58.779Z,14.68
2024-05-09T08:55:29.013Z,14.80
2024-05-09T08:59:00.946Z,14.86
2024-05-09T09:02:30.184Z,14.87
2024-05-09T09:06:02.781Z,14.92
2024-05-09T09:09:29.991Z,14.99
2024-05-09T09:13:04.148Z,15.12
2024-05-09T09:16:36.520Z,15.20
2024-05-09T09:20:03.120Z,15.24
2024-05-09T09:23:30.958Z,15.30
2024-05-09T09:27:00.659Z,15.41
2024-05-09T09:30:37.297Z,15.55
2024-05-09T09:34:12.028Z,15.67
2024-05-09T09:37:40.063Z,15.76
2024-05-09T09:41:10.947Z,15.88
2024-05-09T09:44:42.132Z,15.96
2024-05-09T09:48:16.060Z,16.12
2024-05-09T09:51:44.623Z,16.16
2024-05-09T09:55:12.621Z,16.10
2024-05-09T09:58:41.172Z,16.14
2024-05-09T10:02:07.179Z,16.22
2024-05-09T10:05:34.362Z,16.34
2024-05-09T10:09:01.114Z,16.46
2024-05-09T10:12:26.679Z,16.57
2024-05-09T10:15:54.666Z,16.59
2024-05-09T10:19:27.940Z,16.60
2024-05-09T10:22:56.483Z,16.71
2024-05-09T10:26:33.664Z,16.87
2024-05-09T10:30:06.759Z,17.05
2024-05-09T10:33:42.053Z,17.24
2024-05-09T10:37:08.113Z,17.42
2024-05-09T10:40:33.907Z,17.55
2024-05-09T10:44:01.617Z,17.59
2024-05-09T10:47:31.321Z,17.66
2024-05-09T10:50:56.703Z,17.70
2024-05-09T10:54:22.629Z,17.81
2024-05-09T10:57:48.196Z,17.96
2024-05-09T11:01:14.174Z,18.11
2024-05-09T11:04:41.120Z,18.24
2024-05-09T11:08:07.673Z,18.38
2024-05-09T11:11:33.338Z,18.46
2024-05-09T11:14:59.219Z,18.54
2024-05-09T11:18:26.763Z,18.63
2024-05-09T11:21:54.728Z,18.68
2024-05-09T11:25:20.590Z,18.74
2024-05-09T11:28:47.864Z,18.87
2024-05-09T11:32:16.425Z,19.03
2024-05-09T11:35:41.717Z,19.17
2024-05-09T11:39:07.445Z,19.31
2024-05-09T11:42:32.711Z,19.43
2024-05-09T11:45:59.212Z,19.56
2024-05-09T11:49:27.087Z,19.67
2024-05-09T11:52:59.111Z,19.69
2024-05-09T11:56:24.711Z,19.75
2024-05-09T11:59:51.209Z,19.91
2024-05-09T12:03:20.570Z,20.08
2024-05-09T12:06:54.147Z,20.22
2024-05-09T12:10:32.494Z,20.34
2024-05-09T12:14:00.461Z,20.55
2024-05-09T12:17:26.667Z,20.68
2024-05-09T12:20:52.276Z,20.86
2024-05-09T12:24:18.538Z,21.13
2024-05-09T12:27:44.747Z,21.36
2024-05-09T12:31:10.638Z,21.61
2024-05-09T12:34:36.394Z,21.95
2024-05-09T12:38:01.863Z,22.26
2024-05-09T12:41:27.579Z,22.51
2024-05-09T12:44:55.673Z,22.78
2024-05-09T12:48:21.368Z,23.07
2024-05-09T12:51:47.438Z,23.36
2024-05-09T12:55:18.980Z,23.52
2024-05-09T12:58:47.981Z,23.73
2024-05-09T13:02:15.489Z,23.90
2024-05-09T13:05:46.441Z,24.12
2024-05-09T13:09:12.789Z,24.30
2024-05-09T13:12:40.939Z,24.33
2024-05-09T13:16:10.267Z,24.41
2024-05-09T13:19:38.805Z,24.56
2024-05-09T13:23:06.651Z,24.68
2024-05-09T13:26:33.094Z,24.73
2024-05-09T13:29:58.562Z,24.84
2024-05-09T13:33:23.748Z,25.05
2024-05-09T13:36:49.146Z,25.15
2024-05-09T13:40:23.202Z,25.23
2024-05-09T13:43:53.643Z,25.34
2024-05-09T13:47:19.300Z,25.42
2024-05-09T13:50:48.463Z,25.57
2024-05-09T13:54:18.597Z,25.71
2024-05-09T13:57:55.636Z,25.81
2024-05-09T14:01:23.093Z,25.86
2024-05-09T14:04:51.060Z,25.91
2024-05-09T14:08:19.851Z,25.99
2024-05-09T14:11:52.521Z,26.08
2024-05-09T14:15:19.018Z,26.16
2024-05-09T14:18:45.301Z,26.14
2024-05-09T14:22:16.799Z,26.16
2024-05-09T14:25:45.518Z,26.26
2024-05-09T14:29:14.601Z,26.43
2024-05-09T14:32:40.840Z,26.52
2024-05-09T14:36:07.196Z,26.61
2024-05-09T14:39:32.950Z,26.63
2024-05-09T14:43:01.041Z,26.61
2024-05-09T14:46:28.880Z,26.66
2024-05-09T14:50:00.172Z,26.68
2024-05-09T14:53:29.217Z,26.74
2024-05-09T14:56:55.312Z,26.81
2024-05-09T15:00:28.663Z,26.85
2024-05-09T15:03:58.383Z,26.76
2024-05-09T15:07:24.129Z,26.70
2024-05-09T15:10:50.902Z,26.59
2024-05-09T15:14:16.707Z,26.37
2024-05-09T15:17:42.764Z,26.03
2024-05-09T15:21:08.365Z,25.79
2024-05-09T15:24:33.933Z,25.55
2024-05-09T15:28:00.138Z,25.27
2024-05-09T15:31:26.382Z,24.97
2024-05-09T15:34:54.698Z,24.69
2024-05-09T15:38:21.837Z,24.39
2024-05-09T15:41:47.455Z,24.13
2024-05-09T15:45:12.445Z,23.89
2024-05-09T15:48:38.719Z,23.65
2024-05-09T15:52:05.741Z,23.46
2024-05-09T15:55:33.464Z,23.30
2024-05-09T15:58:59.787Z,23.06
2024-05-09T16:02:25.441Z,22.86
2024-05-09T16:05:51.813Z,22.69
2024-05-09T16:09:17.778Z,22.53
2024-05-09T16:12:45.651Z,22.34
2024-05-09T16:16:11.212Z,22.15
2024-05-09T16:19:36.676Z,21.93
2024-05-09T16:23:01.843Z,21.71
2024-05-09T16:26:26.966Z,21.52
2024-05-09T16:29:52.115Z,21.35
2024-05-09T16:33:19.078Z,21.21
2024-05-09T16:36:44.665Z,21.10
2024-05-09T16:40:21.774Z,21.00
2024-05-09T16:43:55.093Z,20.85
2024-05-09T16:47:20.429Z,20.69
2024-05-09T16:50:45.822Z,20.56
2024-05-09T16:54:11.393Z,20.40
2024-05-09T16:57:36.727Z,20.23
2024-05-09T17:01:02.298Z,20.09
2024-05-09T17:04:28.127Z,19.91
2024-05-09T17:07:53.775Z,19.76
2024-05-09T17:11:19.538Z,19.65
2024-05-09T17:14:45.098Z,19.54
2024-05-09T17:18:11.122Z,19.40
2024-05-09T17:21:38.467Z,19.28
2024-05-09T17:25:04.086Z,19.16
2024-05-09T17:28:29.776Z,19.06
2024-05-09T17:31:55.730Z,18.94
2024-05-09T17:35:22.014Z,18.79
2024-05-09T17:38:47.791Z,18.67
2024-05-09T17:42:13.071Z,18.56
2024-05-09T17:45:38.513Z,18.43
2024-05-09T17:49:05.112Z,18.31
2024-05-09T17:52:30.936Z,18.17
2024-05-09T17:55:56.543Z,18.02
2024-05-09T17:59:21.953Z,17.88
2024-05-09T18:02:47.036Z,17.74
2024-05-09T18:06:12.363Z,17.59
2024-05-09T18:09:37.785Z,17.47
2024-05-09T18:13:03.381Z,17.32
2024-05-09T18:16:29.259Z,17.18
2024-05-09T18:19:54.146Z,17.04
2024-05-09T18:23:19.416Z,16.94
2024-05-09T18:26:45.433Z,16.82
2024-05-09T18:30:24.065Z,16.69
2024-05-09T18:33:54.072Z,16.54
2024-05-09T18:37:19.816Z,16.40
2024-05-09T18:40:48.380Z,16.25
2024-05-09T18:44:14.836Z,16.13
2024-05-09T18:47:40.373Z,16.02
2024-05-09T18:51:06.699Z,15.89
2024-05-09T18:54:32.493Z,15.78
2024-05-09T18:57:58.238Z,15.66
2024-05-09T19:01:23.275Z,15.57
2024-05-09T19:04:49.623Z,15.47
2024-05-09T19:08:15.908Z,15.36
2024-05-09T19:11:41.610Z,15.26
2024-05-09T19:15:08.436Z,15.16
2024-05-09T19:18:33.706Z,15.05
2024-05-09T19:22:00.036Z,14.94
2024-05-09T19:25:25.303Z,14.83
2024-05-09T19:28:50.323Z,14.73
2024-05-09T19:32:15.636Z,14.58
2024-05-09T19:35:40.652Z,14.46
2024-05-09T19:39:06.567Z,14.36
2024-05-09T19:42:32.284Z,14.25
2024-05-09T19:45:57.870Z,14.13
2024-05-09T19:49:23.343Z,14.04
2024-05-09T19:52:48.936Z,13.96
2024-05-09T19:56:14.156Z,13.87
2024-05-09T19:59:39.417Z,13.78
2024-05-09T20:03:04.922Z,13.69
2024-05-09T20:06:31.383Z,13.61
2024-05-09T20:09:57.079Z,13.51
2024-05-09T20:13:23.528Z,13.41
2024-05-09T20:16:48.908Z,13.32
2024-05-09T20:20:24.554Z,13.22
2024-05-09T20:23:58.246Z,13.12
2024-05-09T20:27:24.008Z,13.04
2024-05-09T20:30:49.347Z,12.97
2024-05-09T20:34:14.776Z,12.90
2024-05-09T20:37:39.796Z,12.83
2024-05-09T20:41:04.962Z,12.77
2024-05-09T20:44:30.223Z,12.68
2024-05-09T20:47:55.811Z,12.62
2024-05-09T20:51:21.248Z,12.56
2024-05-09T20:54:46.482Z,12.50
2024-05-09T20:58:12.199Z,12.43
2024-05-09T21:01:37.851Z,12.36
2024-05-09T21:05:03.813Z,12.30
2024-05-09T21:08:29.617Z,12.25
2024-05-09T21:11:55.155Z,12.20
2024-05-09T21:15:20.428Z,12.13
2024-05-09T21:18:47.249Z,12.05
2024-05-09T21:22:14.166Z,11.97
2024-05-09T21:25:39.076Z,11.92
2024-05-09T21:29:04.855Z,11.87
2024-05-09T21:32:31.219Z,11.84
2024-05-09T21:35:56.894Z,11.81
2024-05-09T21:39:25.207Z,11.78
2024-05-09T21:42:50.313Z,11.76
2024-05-09T21:46:15.989Z,11.71
2024-05-09T21:49:44.383Z,11.67
2024-05-09T21:53:09.700Z,11.64
2024-05-09T21:56:34.589Z,11.64
2024-05-09T21:59:59.715Z,11.65
2024-05-09T22:03:25.522Z,11.64
2024-05-09T22:06:51.164Z,11.60
2024-05-09T22:10:25.630Z,11.53
2024-05-09T22:13:55.420Z,11.48
2024-05-09T22:17:20.811Z,11.43
2024-05-09T22:20:46.888Z,11.38
2024-05-09T22:24:12.319Z,11.34
2024-05-09T22:27:37.391Z,11.30
2024-05-09T22:31:03.004Z,11.25
2024-05-09T22:34:28.623Z,11.20
2024-05-09T22:37:53.865Z,11.18
2024-05-09T22:41:19.480Z,11.11
2024-05-09T22:44:44.528Z,11.04
2024-05-09T22:48:10.807Z,11.00
2024-05-09T22:51:36.433Z,10.98
2024-05-09T22:55:01.501Z,10.96
2024-05-09T22:58:26.658Z,10.95
2024-05-09T23:01:51.669Z,10.91
2024-05-09T23:05:17.407Z,10.87
2024-05-09T23:08:42.761Z,10.86
2024-05-09T23:12:08.858Z,10.84
2024-05-09T23:15:34.155Z,10.81
2024-05-09T23:18:59.940Z,10.76
2024-05-09T23:22:25.592Z,10.70
2024-05-09T23:25:51.228Z,10.65
2024-05-09T23:29:16.706Z,10.58
2024-05-09T23:32:41.909Z,10.52
2024-05-09T23:36:08.002Z,10.48
2024-05-09T23:39:33.517Z,10.41
2024-05-09T23:42:58.838Z,10.35
2024-05-09T23:46:24.233Z,10.32
2024-05-09T23:49:49.717Z,10.30
2024-05-09T23:53:14.876Z,10.28
2024-05-09T23:56:40.281Z,10.29
